Currently 55°F in San Jacinto, California, USA
55°F
64°F / 48°F
2 mph SE
0.00"
Monday, December 10, 2018 6:35 PM PST

San Jacinto, California Weather Summary
Last 36 Hours

Temperature Winds Hourly Humidity Dewpoint
Time Report Norm Report Norm Max Gusts Precip. Rpt. Norm Rpt. Norm Pressure
1Mon 06:35 PM  54.9°F  57°F  2 mph SE  2 mph  none  0.00"  66%  52%  43°F  39°F  30.12"
Mon 06:00 PM  56.7°F  59°F  calm  2 mph  2 mph  0.00"  61%  49%  43°F  39°F  30.13"
Mon 05:00 PM  60.1°F  61°F  calm  2 mph  3 mph  0.00"  54%  45%  43°F  39°F  30.11"
Mon 04:00 PM  63.1°F  65°F  calm  2 mph  7 mph  0.00"  47%  38%  42°F  38°F  30.11"
Mon 03:00 PM  64.0°F  66°F  2 mph S  2 mph  5 mph  0.00"  42%  36%  40°F  37°F  30.11"
2Mon 02:42 PM  64.2°F  67°F  3 mph S  2 mph  3 mph  ----  43%  35%  40°F  37°F  30.11"
Mon 02:00 PM  63.9°F  66°F  3 mph SW  2 mph  7 mph  0.00"  40%  35%  38°F  37°F  30.11"
Mon 01:00 PM  63.0°F  66°F  2 mph W  2 mph  7 mph  0.00"  43%  36%  39°F  37°F  30.13"
Mon 12:00 PM  61.5°F  64°F  1 mph NE  2 mph  6 mph  0.00"  44%  38%  39°F  37°F  30.14"
Mon 11:00 AM  60.1°F  61°F  2 mph SE  1 mph  7 mph  0.00"  49%  43%  40°F  38°F  30.19"
Mon 10:00 AM  55.0°F  57°F  3 mph SE  1 mph  5 mph  0.00"  60%  50%  41°F  38°F  30.21"
Mon 09:00 AM  51.4°F  53°F  2 mph SE  1 mph  8 mph  0.00"  66%  57%  40°F  37°F  30.20"
Mon 08:00 AM  49.3°F  47°F  2 mph W  1 mph  5 mph  0.00"  69%  67%  39°F  36°F  30.20"
Mon 07:00 AM  48.0°F  44°F  2 mph SE  1 mph  7 mph  0.00"  69%  71%  38°F  35°F  30.21"
Mon 06:00 AM  48.0°F  44°F  2 mph SE  1 mph  5 mph  0.00"  70%  71%  38°F  35°F  30.21"
3Mon 05:38 AM  47.5°F  44°F  1 mph SE  1 mph  2 mph  ----  70%  71%  38°F  35°F  30.20"
Mon 05:00 AM  48.2°F  45°F  calm  1 mph  3 mph  0.00"  70%  70%  38°F  35°F  30.20"
Mon 04:00 AM  47.7°F  45°F  calm  1 mph  3 mph  0.00"  73%  69%  39°F  36°F  30.21"
Mon 03:00 AM  49.3°F  46°F  1 mph SE  1 mph  7 mph  0.00"  68%  68%  39°F  36°F  30.21"
Mon 02:00 AM  50.0°F  47°F  2 mph SE  1 mph  8 mph  0.00"  66%  67%  39°F  36°F  30.22"
Mon 01:00 AM  50.7°F  48°F  2 mph E  1 mph  7 mph  0.00"  67%  66%  40°F  36°F  30.23"
Mon 12:00 AM  50.5°F  49°F  2 mph SE  1 mph  8 mph  0.00"  69%  64%  40°F  37°F  30.25"
Sun 11:00 PM  50.9°F  50°F  calm  1 mph  none  0.00"  72%  62%  42°F  37°F  30.29"
Sun 10:00 PM  52.9°F  52°F  calm  1 mph  3 mph  0.00"  69%  60%  43°F  38°F  30.28"
Sun 09:00 PM  54.9°F  53°F  2 mph S  1 mph  3 mph  0.00"  65%  58%  43°F  38°F  30.29"
Sun 08:00 PM  57.4°F  55°F  2 mph S  1 mph  3 mph  0.00"  62%  56%  44°F  39°F  30.29"
Sun 07:00 PM  60.3°F  57°F  2 mph S  1 mph  7 mph  0.00"  56%  52%  44°F  39°F  30.28"
Sun 06:00 PM  62.8°F  59°F  3 mph SE  2 mph  10 mph  0.00"  48%  48%  42°F  39°F  30.28"
Sun 05:00 PM  65.5°F  62°F  6 mph E  2 mph  11 mph  0.00"  46%  43%  43°F  38°F  30.28"
Sun 04:00 PM  67.6°F  65°F  4 mph S  2 mph  5 mph  0.00"  44%  37%  44°F  37°F  30.27"
Sun 03:00 PM  69.3°F  67°F  2 mph W  2 mph  3 mph  0.00"  37%  34%  41°F  37°F  30.26"
Sun 02:00 PM  70.5°F  67°F  2 mph W  3 mph  7 mph  0.00"  34%  33%  40°F  36°F  30.25"
Sun 01:00 PM  70.2°F  66°F  2 mph W  2 mph  7 mph  0.00"  37%  34%  42°F  36°F  30.29"
Sun 12:00 PM  68.4°F  65°F  1 mph S  2 mph  5 mph  0.00"  40%  37%  42°F  36°F  30.33"
Sun 11:00 AM  62.8°F  62°F  1 mph W  1 mph  6 mph  0.00"  57%  42%  47°F  37°F  30.38"
Sun 10:01 AM  58.8°F  58°F  3 mph W  1 mph  3 mph  0.00"  57%  49%  43°F  38°F  30.41"
Sun 09:00 AM  54.3°F  53°F  1 mph N  1 mph  3 mph  0.00"  65%  57%  42°F  37°F  30.41"
Sun 08:00 AM  45.0°F  47°F  calm  1 mph  none  0.00"  86%  67%  41°F  36°F  30.40"
Sun 07:00 AM  42.1°F  44°F  calm  1 mph  none  0.00"  86%  71%  38°F  35°F  30.39"

  1. Current weather data. No green row appears if the current weather data is also the high or low for the current day.
  2. High temperature for the current day.
  3. Low temperature for the current day.

The San Jacinto, California weather pages are a service of WeatherCurrents. San Jacinto is located in the heart of the San Jacinto Valley, near Hemet, the Soboba Casino, and at the foot of the San Jacinto Mountains.
Copyright ©Mon Dec 10 18:36:25 PST 2018  WeatherCurrents. All rights reserved. - Submit questions and comments - Privacy Policy

This page automatically refreshes every 10 minutes.